sensor_id;sensor_type;location;lat;lon;timestamp;temperature;humidity
63537;DHT22;49686;51.880;5.632;2022-12-07T00:01:46;0.70;99.90
63537;DHT22;49686;51.880;5.632;2022-12-07T00:04:15;0.70;99.90
63537;DHT22;49686;51.880;5.632;2022-12-07T00:06:44;0.90;99.90
63537;DHT22;49686;51.880;5.632;2022-12-07T00:09:12;0.90;99.90
63537;DHT22;49686;51.880;5.632;2022-12-07T00:11:41;0.90;99.90
63537;DHT22;49686;51.880;5.632;2022-12-07T00:14:10;0.90;99.90
63537;DHT22;49686;51.880;5.632;2022-12-07T00:16:38;1.00;99.90
63537;DHT22;49686;51.880;5.632;2022-12-07T00:19:05;1.00;99.90
63537;DHT22;49686;51.880;5.632;2022-12-07T00:21:33;0.90;99.90
63537;DHT22;49686;51.880;5.632;2022-12-07T00:24:01;0.90;99.90
63537;DHT22;49686;51.880;5.632;2022-12-07T00:26:30;0.80;99.90
63537;DHT22;49686;51.880;5.632;2022-12-07T00:28:59;0.90;99.90
63537;DHT22;49686;51.880;5.632;2022-12-07T00:31:29;1.00;99.90
63537;DHT22;49686;51.880;5.632;2022-12-07T00:33:57;0.90;99.90
63537;DHT22;49686;51.880;5.632;2022-12-07T00:36:24;0.80;99.90
63537;DHT22;49686;51.880;5.632;2022-12-07T00:38:53;0.90;99.90
63537;DHT22;49686;51.880;5.632;2022-12-07T00:41:21;0.90;99.90
63537;DHT22;49686;51.880;5.632;2022-12-07T00:43:49;1.00;99.90
63537;DHT22;49686;51.880;5.632;2022-12-07T00:46:18;0.80;99.90
63537;DHT22;49686;51.880;5.632;2022-12-07T00:48:46;0.70;99.90
63537;DHT22;49686;51.880;5.632;2022-12-07T00:51:14;0.70;99.90
63537;DHT22;49686;51.880;5.632;2022-12-07T00:53:41;0.60;99.90
63537;DHT22;49686;51.880;5.632;2022-12-07T00:56:11;0.60;99.90
63537;DHT22;49686;51.880;5.632;2022-12-07T00:58:38;0.80;99.90
63537;DHT22;49686;51.880;5.632;2022-12-07T01:01:06;0.70;99.90
63537;DHT22;49686;51.880;5.632;2022-12-07T01:03:35;0.60;99.90
63537;DHT22;49686;51.880;5.632;2022-12-07T01:06:03;0.50;99.90
63537;DHT22;49686;51.880;5.632;2022-12-07T01:08:30;0.50;99.90
63537;DHT22;49686;51.880;5.632;2022-12-07T01:10:58;0.50;99.90
63537;DHT22;49686;51.880;5.632;2022-12-07T01:13:25;0.60;99.90
63537;DHT22;49686;51.880;5.632;2022-12-07T01:15:57;0.40;99.90
63537;DHT22;49686;51.880;5.632;2022-12-07T01:18:24;0.40;99.90
63537;DHT22;49686;51.880;5.632;2022-12-07T01:20:59;0.50;99.90
63537;DHT22;49686;51.880;5.632;2022-12-07T01:23:26;0.50;99.90
63537;DHT22;49686;51.880;5.632;2022-12-07T01:25:56;0.30;99.90
63537;DHT22;49686;51.880;5.632;2022-12-07T01:28:23;0.20;99.90
63537;DHT22;49686;51.880;5.632;2022-12-07T01:30:58;0.40;99.90
63537;DHT22;49686;51.880;5.632;2022-12-07T01:33:27;0.30;99.90
63537;DHT22;49686;51.880;5.632;2022-12-07T01:35:54;0.10;99.90
63537;DHT22;49686;51.880;5.632;2022-12-07T01:38:22;0.00;99.90
63537;DHT22;49686;51.880;5.632;2022-12-07T01:40:54;0.30;99.90
63537;DHT22;49686;51.880;5.632;2022-12-07T01:43:22;0.20;99.90
63537;DHT22;49686;51.880;5.632;2022-12-07T01:45:49;0.20;99.90
63537;DHT22;49686;51.880;5.632;2022-12-07T01:48:18;0.20;99.90
63537;DHT22;49686;51.880;5.632;2022-12-07T01:50:47;0.10;99.90
63537;DHT22;49686;51.880;5.632;2022-12-07T01:53:15;0.10;99.90
63537;DHT22;49686;51.880;5.632;2022-12-07T01:55:47;0.00;99.90
63537;DHT22;49686;51.880;5.632;2022-12-07T01:58:15;-0.10;99.90
63537;DHT22;49686;51.880;5.632;2022-12-07T02:00:42;-0.10;99.90
63537;DHT22;49686;51.880;5.632;2022-12-07T02:03:13;0.10;99.90
63537;DHT22;49686;51.880;5.632;2022-12-07T02:05:41;0.00;99.90
63537;DHT22;49686;51.880;5.632;2022-12-07T02:08:10;-0.20;99.90
63537;DHT22;49686;51.880;5.632;2022-12-07T02:10:38;-0.10;99.90
63537;DHT22;49686;51.880;5.632;2022-12-07T02:13:11;-0.30;99.90
63537;DHT22;49686;51.880;5.632;2022-12-07T02:18:36;-0.10;99.90
63537;DHT22;49686;51.880;5.632;2022-12-07T02:21:08;-0.40;99.90
63537;DHT22;49686;51.880;5.632;2022-12-07T02:24:03;-0.20;99.90
63537;DHT22;49686;51.880;5.632;2022-12-07T02:29:31;-0.10;99.90
63537;DHT22;49686;51.880;5.632;2022-12-07T02:32:04;-0.20;99.90
63537;DHT22;49686;51.880;5.632;2022-12-07T02:34:42;-0.30;99.90
63537;DHT22;49686;51.880;5.632;2022-12-07T02:37:16;-0.30;99.90
63537;DHT22;49686;51.880;5.632;2022-12-07T02:39:50;-0.30;99.90
63537;DHT22;49686;51.880;5.632;2022-12-07T02:42:21;-0.30;99.90
63537;DHT22;49686;51.880;5.632;2022-12-07T02:44:52;-0.30;99.90
63537;DHT22;49686;51.880;5.632;2022-12-07T02:47:20;-0.20;99.90
63537;DHT22;49686;51.880;5.632;2022-12-07T02:49:49;-0.20;99.90
63537;DHT22;49686;51.880;5.632;2022-12-07T02:52:16;-0.30;99.90
63537;DHT22;49686;51.880;5.632;2022-12-07T02:54:43;-0.30;99.90
63537;DHT22;49686;51.880;5.632;2022-12-07T02:57:25;-0.30;99.90
63537;DHT22;49686;51.880;5.632;2022-12-07T03:00:03;-0.20;99.90
63537;DHT22;49686;51.880;5.632;2022-12-07T03:02:38;0.10;99.90
63537;DHT22;49686;51.880;5.632;2022-12-07T03:08:15;0.50;99.90
63537;DHT22;49686;51.880;5.632;2022-12-07T03:10:51;0.50;99.90
63537;DHT22;49686;51.880;5.632;2022-12-07T03:13:24;0.70;99.90
63537;DHT22;49686;51.880;5.632;2022-12-07T03:15:57;0.60;99.90
63537;DHT22;49686;51.880;5.632;2022-12-07T03:18:28;0.60;99.90
63537;DHT22;49686;51.880;5.632;2022-12-07T03:21:00;0.50;99.90
63537;DHT22;49686;51.880;5.632;2022-12-07T03:23:29;0.60;99.90
63537;DHT22;49686;51.880;5.632;2022-12-07T03:26:00;0.50;99.90
63537;DHT22;49686;51.880;5.632;2022-12-07T03:28:31;0.60;99.90
63537;DHT22;49686;51.880;5.632;2022-12-07T03:31:02;0.60;99.90
63537;DHT22;49686;51.880;5.632;2022-12-07T03:33:33;0.70;99.90
63537;DHT22;49686;51.880;5.632;2022-12-07T03:36:06;0.70;99.90
63537;DHT22;49686;51.880;5.632;2022-12-07T03:38:36;0.70;99.90
63537;DHT22;49686;51.880;5.632;2022-12-07T03:41:07;0.70;99.90
63537;DHT22;49686;51.880;5.632;2022-12-07T03:43:36;0.70;99.90
63537;DHT22;49686;51.880;5.632;2022-12-07T03:46:12;0.60;99.90
63537;DHT22;49686;51.880;5.632;2022-12-07T03:48:49;0.60;99.90
63537;DHT22;49686;51.880;5.632;2022-12-07T03:51:21;0.50;99.90
63537;DHT22;49686;51.880;5.632;2022-12-07T03:53:53;0.60;99.90
63537;DHT22;49686;51.880;5.632;2022-12-07T03:56:21;0.60;99.90
63537;DHT22;49686;51.880;5.632;2022-12-07T03:58:49;0.90;99.90
63537;DHT22;49686;51.880;5.632;2022-12-07T04:01:19;1.00;99.90
63537;DHT22;49686;51.880;5.632;2022-12-07T04:03:45;1.00;99.90
63537;DHT22;49686;51.880;5.632;2022-12-07T04:06:12;1.10;99.90
63537;DHT22;49686;51.880;5.632;2022-12-07T04:08:39;1.00;99.90
63537;DHT22;49686;51.880;5.632;2022-12-07T04:11:06;0.90;99.90
63537;DHT22;49686;51.880;5.632;2022-12-07T04:13:32;0.90;99.90
63537;DHT22;49686;51.880;5.632;2022-12-07T04:15:59;0.90;99.90
63537;DHT22;49686;51.880;5.632;2022-12-07T04:18:27;0.80;99.90
63537;DHT22;49686;51.880;5.632;2022-12-07T04:20:54;0.60;99.90
63537;DHT22;49686;51.880;5.632;2022-12-07T04:23:21;0.60;99.90
63537;DHT22;49686;51.880;5.632;2022-12-07T04:25:48;0.50;99.90
63537;DHT22;49686;51.880;5.632;2022-12-07T04:28:14;0.50;99.90
63537;DHT22;49686;51.880;5.632;2022-12-07T04:30:41;0.60;99.90
63537;DHT22;49686;51.880;5.632;2022-12-07T04:33:08;0.50;99.90
63537;DHT22;49686;51.880;5.632;2022-12-07T04:35:36;0.40;99.90
63537;DHT22;49686;51.880;5.632;2022-12-07T04:38:03;0.40;99.90
63537;DHT22;49686;51.880;5.632;2022-12-07T04:40:29;0.50;99.90
63537;DHT22;49686;51.880;5.632;2022-12-07T04:42:56;0.40;99.90
63537;DHT22;49686;51.880;5.632;2022-12-07T04:45:23;0.60;99.90
63537;DHT22;49686;51.880;5.632;2022-12-07T04:47:50;0.60;99.90
63537;DHT22;49686;51.880;5.632;2022-12-07T04:50:16;0.50;99.90
63537;DHT22;49686;51.880;5.632;2022-12-07T04:52:45;0.40;99.90
63537;DHT22;49686;51.880;5.632;2022-12-07T04:55:11;0.40;99.90
63537;DHT22;49686;51.880;5.632;2022-12-07T04:57:38;0.50;99.90
63537;DHT22;49686;51.880;5.632;2022-12-07T05:00:06;0.50;99.90
63537;DHT22;49686;51.880;5.632;2022-12-07T05:02:33;0.60;99.90
63537;DHT22;49686;51.880;5.632;2022-12-07T05:05:00;0.60;99.90
63537;DHT22;49686;51.880;5.632;2022-12-07T05:07:27;0.60;99.90
63537;DHT22;49686;51.880;5.632;2022-12-07T05:09:55;0.60;99.90
63537;DHT22;49686;51.880;5.632;2022-12-07T05:12:21;0.60;99.90
63537;DHT22;49686;51.880;5.632;2022-12-07T05:14:48;0.50;99.90
63537;DHT22;49686;51.880;5.632;2022-12-07T05:17:15;0.40;99.90
63537;DHT22;49686;51.880;5.632;2022-12-07T05:19:41;0.40;99.90
63537;DHT22;49686;51.880;5.632;2022-12-07T05:22:08;0.30;99.90
63537;DHT22;49686;51.880;5.632;2022-12-07T05:24:35;0.30;99.90
63537;DHT22;49686;51.880;5.632;2022-12-07T05:27:03;0.40;99.90
63537;DHT22;49686;51.880;5.632;2022-12-07T05:29:30;0.30;99.90
63537;DHT22;49686;51.880;5.632;2022-12-07T05:31:57;0.30;99.90
63537;DHT22;49686;51.880;5.632;2022-12-07T05:34:24;0.30;99.90
63537;DHT22;49686;51.880;5.632;2022-12-07T05:36:50;0.20;99.90
63537;DHT22;49686;51.880;5.632;2022-12-07T05:39:17;0.30;99.90
63537;DHT22;49686;51.880;5.632;2022-12-07T05:41:44;0.30;99.90
63537;DHT22;49686;51.880;5.632;2022-12-07T05:44:12;0.50;99.90
63537;DHT22;49686;51.880;5.632;2022-12-07T05:46:39;0.50;99.90
63537;DHT22;49686;51.880;5.632;2022-12-07T05:49:06;0.50;99.90
63537;DHT22;49686;51.880;5.632;2022-12-07T05:51:32;0.50;99.90
63537;DHT22;49686;51.880;5.632;2022-12-07T05:53:59;0.60;99.90
63537;DHT22;49686;51.880;5.632;2022-12-07T05:56:26;0.50;99.90
63537;DHT22;49686;51.880;5.632;2022-12-07T05:58:53;0.40;99.90
63537;DHT22;49686;51.880;5.632;2022-12-07T06:01:21;0.30;99.90
63537;DHT22;49686;51.880;5.632;2022-12-07T06:03:48;0.20;99.90
63537;DHT22;49686;51.880;5.632;2022-12-07T06:06:14;0.10;99.90
63537;DHT22;49686;51.880;5.632;2022-12-07T06:08:41;0.10;99.90
63537;DHT22;49686;51.880;5.632;2022-12-07T06:11:08;0.20;99.90
63537;DHT22;49686;51.880;5.632;2022-12-07T06:13:35;0.30;99.90
63537;DHT22;49686;51.880;5.632;2022-12-07T06:16:01;0.30;99.90
63537;DHT22;49686;51.880;5.632;2022-12-07T06:18:29;0.30;99.90
63537;DHT22;49686;51.880;5.632;2022-12-07T06:20:56;0.40;99.90
63537;DHT22;49686;51.880;5.632;2022-12-07T06:23:23;0.30;99.90
63537;DHT22;49686;51.880;5.632;2022-12-07T06:25:50;0.20;99.90
63537;DHT22;49686;51.880;5.632;2022-12-07T06:28:16;0.30;99.90
63537;DHT22;49686;51.880;5.632;2022-12-07T06:30:43;0.30;99.90
63537;DHT22;49686;51.880;5.632;2022-12-07T06:33:10;0.40;99.90
63537;DHT22;49686;51.880;5.632;2022-12-07T06:35:38;0.50;99.90
63537;DHT22;49686;51.880;5.632;2022-12-07T06:38:05;0.40;99.90
63537;DHT22;49686;51.880;5.632;2022-12-07T06:40:32;0.40;99.90
63537;DHT22;49686;51.880;5.632;2022-12-07T06:42:58;0.30;99.90
63537;DHT22;49686;51.880;5.632;2022-12-07T06:45:25;0.30;99.90
63537;DHT22;49686;51.880;5.632;2022-12-07T06:47:52;0.20;99.90
63537;DHT22;49686;51.880;5.632;2022-12-07T06:50:19;0.10;99.90
63537;DHT22;49686;51.880;5.632;2022-12-07T06:52:47;0.00;99.90
63537;DHT22;49686;51.880;5.632;2022-12-07T06:55:14;-0.20;99.90
63537;DHT22;49686;51.880;5.632;2022-12-07T06:57:40;-0.20;99.90
63537;DHT22;49686;51.880;5.632;2022-12-07T07:00:08;-0.40;99.90
63537;DHT22;49686;51.880;5.632;2022-12-07T07:02:35;-0.30;99.90
63537;DHT22;49686;51.880;5.632;2022-12-07T07:05:02;-0.20;99.90
63537;DHT22;49686;51.880;5.632;2022-12-07T07:07:29;-0.50;99.90
63537;DHT22;49686;51.880;5.632;2022-12-07T07:09:57;-0.50;99.90
63537;DHT22;49686;51.880;5.632;2022-12-07T07:12:24;-0.40;99.90
63537;DHT22;49686;51.880;5.632;2022-12-07T07:14:50;-0.50;99.90
63537;DHT22;49686;51.880;5.632;2022-12-07T07:17:17;-0.50;99.90
63537;DHT22;49686;51.880;5.632;2022-12-07T07:19:44;-0.50;99.90
63537;DHT22;49686;51.880;5.632;2022-12-07T07:22:11;-0.60;99.90
63537;DHT22;49686;51.880;5.632;2022-12-07T07:24:37;-0.60;99.90
63537;DHT22;49686;51.880;5.632;2022-12-07T07:27:06;-0.50;99.90
63537;DHT22;49686;51.880;5.632;2022-12-07T07:29:32;-0.60;99.90
63537;DHT22;49686;51.880;5.632;2022-12-07T07:31:59;-0.40;99.90
63537;DHT22;49686;51.880;5.632;2022-12-07T07:34:32;-0.50;99.90
63537;DHT22;49686;51.880;5.632;2022-12-07T07:36:59;-0.40;99.90
63537;DHT22;49686;51.880;5.632;2022-12-07T07:39:26;-0.60;99.90
63537;DHT22;49686;51.880;5.632;2022-12-07T07:41:53;-0.50;99.90
63537;DHT22;49686;51.880;5.632;2022-12-07T07:44:21;-0.60;99.90
63537;DHT22;49686;51.880;5.632;2022-12-07T07:46:48;-0.40;99.90
63537;DHT22;49686;51.880;5.632;2022-12-07T07:49:14;-0.60;99.90
63537;DHT22;49686;51.880;5.632;2022-12-07T07:51:41;-0.60;99.90
63537;DHT22;49686;51.880;5.632;2022-12-07T07:54:08;-0.60;99.90
63537;DHT22;49686;51.880;5.632;2022-12-07T07:56:35;-0.50;99.90
63537;DHT22;49686;51.880;5.632;2022-12-07T07:59:01;-0.70;99.90
63537;DHT22;49686;51.880;5.632;2022-12-07T08:01:30;-0.60;99.90
63537;DHT22;49686;51.880;5.632;2022-12-07T08:03:56;-0.40;99.90
63537;DHT22;49686;51.880;5.632;2022-12-07T08:06:23;-0.50;99.90
63537;DHT22;49686;51.880;5.632;2022-12-07T08:08:57;-0.50;99.90
63537;DHT22;49686;51.880;5.632;2022-12-07T08:11:24;-0.50;99.90
63537;DHT22;49686;51.880;5.632;2022-12-07T08:13:51;-0.40;99.90
63537;DHT22;49686;51.880;5.632;2022-12-07T08:16:18;-0.40;99.90
63537;DHT22;49686;51.880;5.632;2022-12-07T08:18:46;-0.40;99.90
63537;DHT22;49686;51.880;5.632;2022-12-07T08:21:14;-0.30;99.90
63537;DHT22;49686;51.880;5.632;2022-12-07T08:23:41;-0.30;99.90
63537;DHT22;49686;51.880;5.632;2022-12-07T08:26:10;-0.30;99.90
63537;DHT22;49686;51.880;5.632;2022-12-07T08:28:37;-0.20;99.90
63537;DHT22;49686;51.880;5.632;2022-12-07T08:31:07;-0.10;99.90
63537;DHT22;49686;51.880;5.632;2022-12-07T08:33:34;0.00;99.90
63537;DHT22;49686;51.880;5.632;2022-12-07T08:36:04;0.10;99.90
63537;DHT22;49686;51.880;5.632;2022-12-07T08:38:31;0.20;99.90
63537;DHT22;49686;51.880;5.632;2022-12-07T08:40:58;0.30;99.90
63537;DHT22;49686;51.880;5.632;2022-12-07T08:43:25;0.40;99.90
63537;DHT22;49686;51.880;5.632;2022-12-07T08:45:56;0.50;99.90
63537;DHT22;49686;51.880;5.632;2022-12-07T08:48:28;0.70;99.90
63537;DHT22;49686;51.880;5.632;2022-12-07T08:50:56;0.90;99.90
63537;DHT22;49686;51.880;5.632;2022-12-07T08:53:25;0.90;99.90
63537;DHT22;49686;51.880;5.632;2022-12-07T08:55:52;0.70;99.90
63537;DHT22;49686;51.880;5.632;2022-12-07T08:58:18;0.70;99.90
63537;DHT22;49686;51.880;5.632;2022-12-07T09:00:45;0.70;99.90
63537;DHT22;49686;51.880;5.632;2022-12-07T09:03:12;0.70;99.90
63537;DHT22;49686;51.880;5.632;2022-12-07T09:05:39;0.60;99.90
63537;DHT22;49686;51.880;5.632;2022-12-07T09:08:06;0.70;99.90
63537;DHT22;49686;51.880;5.632;2022-12-07T09:10:35;0.90;99.90
63537;DHT22;49686;51.880;5.632;2022-12-07T09:13:01;1.20;99.90
63537;DHT22;49686;51.880;5.632;2022-12-07T09:15:28;1.50;99.90
63537;DHT22;49686;51.880;5.632;2022-12-07T09:17:55;1.80;99.90
63537;DHT22;49686;51.880;5.632;2022-12-07T09:20:22;1.80;99.90
63537;DHT22;49686;51.880;5.632;2022-12-07T09:22:54;1.80;99.90
63537;DHT22;49686;51.880;5.632;2022-12-07T09:25:21;1.70;99.90
63537;DHT22;49686;51.880;5.632;2022-12-07T09:27:55;1.70;99.90
63537;DHT22;49686;51.880;5.632;2022-12-07T09:30:22;1.70;99.90
63537;DHT22;49686;51.880;5.632;2022-12-07T09:32:49;1.90;99.90
63537;DHT22;49686;51.880;5.632;2022-12-07T09:35:15;1.90;99.90
63537;DHT22;49686;51.880;5.632;2022-12-07T09:37:42;2.00;99.90
63537;DHT22;49686;51.880;5.632;2022-12-07T09:40:09;1.90;99.90
63537;DHT22;49686;51.880;5.632;2022-12-07T09:42:39;1.90;99.90
63537;DHT22;49686;51.880;5.632;2022-12-07T09:45:15;2.00;99.90
63537;DHT22;49686;51.880;5.632;2022-12-07T09:47:42;2.00;99.90
63537;DHT22;49686;51.880;5.632;2022-12-07T09:50:14;1.90;99.90
63537;DHT22;49686;51.880;5.632;2022-12-07T09:52:42;2.00;99.90
63537;DHT22;49686;51.880;5.632;2022-12-07T09:55:12;2.10;99.90
63537;DHT22;49686;51.880;5.632;2022-12-07T09:57:38;2.30;99.90
63537;DHT22;49686;51.880;5.632;2022-12-07T10:00:13;2.40;99.90
63537;DHT22;49686;51.880;5.632;2022-12-07T10:02:42;2.50;99.90
63537;DHT22;49686;51.880;5.632;2022-12-07T10:05:13;2.70;99.90
63537;DHT22;49686;51.880;5.632;2022-12-07T10:07:49;2.80;99.90
63537;DHT22;49686;51.880;5.632;2022-12-07T10:10:20;3.00;99.90
63537;DHT22;49686;51.880;5.632;2022-12-07T10:12:54;3.00;99.90
63537;DHT22;49686;51.880;5.632;2022-12-07T10:15:23;3.10;99.90
63537;DHT22;49686;51.880;5.632;2022-12-07T10:17:51;3.20;99.90
63537;DHT22;49686;51.880;5.632;2022-12-07T10:20:21;3.30;99.90
63537;DHT22;49686;51.880;5.632;2022-12-07T10:23:00;3.20;99.90
63537;DHT22;49686;51.880;5.632;2022-12-07T10:25:29;3.40;99.90
63537;DHT22;49686;51.880;5.632;2022-12-07T10:28:17;3.70;99.90
63537;DHT22;49686;51.880;5.632;2022-12-07T10:30:52;4.10;99.90
63537;DHT22;49686;51.880;5.632;2022-12-07T10:33:28;4.00;99.90
63537;DHT22;49686;51.880;5.632;2022-12-07T10:35:55;4.00;99.90
63537;DHT22;49686;51.880;5.632;2022-12-07T10:38:22;3.90;99.90
63537;DHT22;49686;51.880;5.632;2022-12-07T10:41:03;3.80;99.90
63537;DHT22;49686;51.880;5.632;2022-12-07T10:43:30;3.60;99.90
63537;DHT22;49686;51.880;5.632;2022-12-07T10:46:17;3.50;99.90
63537;DHT22;49686;51.880;5.632;2022-12-07T10:48:57;3.50;99.90
63537;DHT22;49686;51.880;5.632;2022-12-07T10:51:29;3.40;99.90
63537;DHT22;49686;51.880;5.632;2022-12-07T10:54:10;3.60;99.90
63537;DHT22;49686;51.880;5.632;2022-12-07T10:56:56;3.70;99.90
63537;DHT22;49686;51.880;5.632;2022-12-07T10:59:41;3.70;99.90
63537;DHT22;49686;51.880;5.632;2022-12-07T11:02:23;3.90;99.90
63537;DHT22;49686;51.880;5.632;2022-12-07T11:05:03;3.80;99.90
63537;DHT22;49686;51.880;5.632;2022-12-07T11:07:41;3.80;99.90
63537;DHT22;49686;51.880;5.632;2022-12-07T11:10:16;3.90;99.90
63537;DHT22;49686;51.880;5.632;2022-12-07T11:13:09;3.70;99.90
63537;DHT22;49686;51.880;5.632;2022-12-07T11:15:48;3.90;99.90
63537;DHT22;49686;51.880;5.632;2022-12-07T11:18:24;4.00;99.90
63537;DHT22;49686;51.880;5.632;2022-12-07T11:20:59;3.90;99.90
63537;DHT22;49686;51.880;5.632;2022-12-07T11:23:40;3.80;99.90
63537;DHT22;49686;51.880;5.632;2022-12-07T11:26:14;3.60;99.90
63537;DHT22;49686;51.880;5.632;2022-12-07T11:28:57;3.60;99.90
63537;DHT22;49686;51.880;5.632;2022-12-07T11:31:30;3.60;99.90
63537;DHT22;49686;51.880;5.632;2022-12-07T11:34:03;3.70;99.90
63537;DHT22;49686;51.880;5.632;2022-12-07T11:36:37;4.00;99.90
63537;DHT22;49686;51.880;5.632;2022-12-07T11:39:16;4.30;99.90
63537;DHT22;49686;51.880;5.632;2022-12-07T11:41:48;4.50;99.90
63537;DHT22;49686;51.880;5.632;2022-12-07T11:44:25;4.60;99.90
63537;DHT22;49686;51.880;5.632;2022-12-07T11:46:59;4.60;99.90
63537;DHT22;49686;51.880;5.632;2022-12-07T11:49:40;4.50;99.90
63537;DHT22;49686;51.880;5.632;2022-12-07T11:52:16;4.40;99.90
63537;DHT22;49686;51.880;5.632;2022-12-07T11:54:46;4.30;99.90
63537;DHT22;49686;51.880;5.632;2022-12-07T11:57:15;4.20;99.90
63537;DHT22;49686;51.880;5.632;2022-12-07T11:59:50;4.30;99.90
63537;DHT22;49686;51.880;5.632;2022-12-07T12:02:23;4.20;99.90
63537;DHT22;49686;51.880;5.632;2022-12-07T12:04:57;4.10;99.90
63537;DHT22;49686;51.880;5.632;2022-12-07T12:07:27;4.10;99.90
63537;DHT22;49686;51.880;5.632;2022-12-07T12:10:19;4.10;99.90
63537;DHT22;49686;51.880;5.632;2022-12-07T12:12:58;4.00;99.90
63537;DHT22;49686;51.880;5.632;2022-12-07T12:16:02;4.00;99.90
63537;DHT22;49686;51.880;5.632;2022-12-07T12:18:51;3.90;99.90
63537;DHT22;49686;51.880;5.632;2022-12-07T12:21:22;3.80;99.90
63537;DHT22;49686;51.880;5.632;2022-12-07T12:23:54;3.80;99.90
63537;DHT22;49686;51.880;5.632;2022-12-07T12:26:24;3.70;99.90
63537;DHT22;49686;51.880;5.632;2022-12-07T12:28:54;3.60;99.90
63537;DHT22;49686;51.880;5.632;2022-12-07T12:31:37;3.50;99.90
63537;DHT22;49686;51.880;5.632;2022-12-07T12:34:32;3.40;99.90
63537;DHT22;49686;51.880;5.632;2022-12-07T12:37:00;3.30;99.90
63537;DHT22;49686;51.880;5.632;2022-12-07T12:39:27;3.20;99.90
63537;DHT22;49686;51.880;5.632;2022-12-07T12:41:59;3.10;99.90
63537;DHT22;49686;51.880;5.632;2022-12-07T12:45:03;3.00;99.90
63537;DHT22;49686;51.880;5.632;2022-12-07T12:47:42;3.00;99.90
63537;DHT22;49686;51.880;5.632;2022-12-07T12:50:20;3.00;99.90
63537;DHT22;49686;51.880;5.632;2022-12-07T12:53:20;3.00;99.90
63537;DHT22;49686;51.880;5.632;2022-12-07T12:59:18;3.00;99.90
63537;DHT22;49686;51.880;5.632;2022-12-07T13:01:48;2.90;99.90
63537;DHT22;49686;51.880;5.632;2022-12-07T13:04:29;3.10;99.90
63537;DHT22;49686;51.880;5.632;2022-12-07T13:06:59;2.90;99.90
63537;DHT22;49686;51.880;5.632;2022-12-07T13:09:29;2.90;99.90
63537;DHT22;49686;51.880;5.632;2022-12-07T13:12:01;2.80;99.90
63537;DHT22;49686;51.880;5.632;2022-12-07T13:14:56;2.90;99.90
63537;DHT22;49686;51.880;5.632;2022-12-07T13:18:01;2.90;99.90
63537;DHT22;49686;51.880;5.632;2022-12-07T13:20:46;2.90;99.90
63537;DHT22;49686;51.880;5.632;2022-12-07T13:23:16;3.00;99.90
63537;DHT22;49686;51.880;5.632;2022-12-07T13:26:16;3.10;99.90
63537;DHT22;49686;51.880;5.632;2022-12-07T13:28:45;3.00;99.90
63537;DHT22;49686;51.880;5.632;2022-12-07T13:31:30;3.10;99.90
63537;DHT22;49686;51.880;5.632;2022-12-07T13:33:57;3.10;99.90
63537;DHT22;49686;51.880;5.632;2022-12-07T13:36:26;3.10;99.90
63537;DHT22;49686;51.880;5.632;2022-12-07T13:38:55;3.00;99.90
63537;DHT22;49686;51.880;5.632;2022-12-07T13:41:25;2.90;99.90
63537;DHT22;49686;51.880;5.632;2022-12-07T13:43:59;2.90;99.90
63537;DHT22;49686;51.880;5.632;2022-12-07T13:46:33;2.90;99.90
63537;DHT22;49686;51.880;5.632;2022-12-07T13:49:01;2.80;99.90
63537;DHT22;49686;51.880;5.632;2022-12-07T13:51:28;2.80;99.90
63537;DHT22;49686;51.880;5.632;2022-12-07T13:54:06;2.70;99.90
63537;DHT22;49686;51.880;5.632;2022-12-07T13:56:36;2.60;99.90
63537;DHT22;49686;51.880;5.632;2022-12-07T13:59:05;2.60;99.90
63537;DHT22;49686;51.880;5.632;2022-12-07T14:01:32;2.50;99.90
63537;DHT22;49686;51.880;5.632;2022-12-07T14:04:18;2.50;99.90
63537;DHT22;49686;51.880;5.632;2022-12-07T14:06:49;2.50;99.90
63537;DHT22;49686;51.880;5.632;2022-12-07T14:09:21;2.50;99.90
63537;DHT22;49686;51.880;5.632;2022-12-07T14:11:50;2.60;99.90
63537;DHT22;49686;51.880;5.632;2022-12-07T14:14:20;2.60;99.90
63537;DHT22;49686;51.880;5.632;2022-12-07T14:16:56;2.60;99.90
63537;DHT22;49686;51.880;5.632;2022-12-07T14:19:48;2.60;99.90
63537;DHT22;49686;51.880;5.632;2022-12-07T14:22:27;2.60;99.90
63537;DHT22;49686;51.880;5.632;2022-12-07T14:25:16;2.70;99.90
63537;DHT22;49686;51.880;5.632;2022-12-07T14:28:09;2.70;99.90
63537;DHT22;49686;51.880;5.632;2022-12-07T14:30:50;2.80;99.90
63537;DHT22;49686;51.880;5.632;2022-12-07T14:33:18;2.80;99.90
63537;DHT22;49686;51.880;5.632;2022-12-07T14:35:45;2.90;99.90
63537;DHT22;49686;51.880;5.632;2022-12-07T14:38:12;2.90;99.90
63537;DHT22;49686;51.880;5.632;2022-12-07T14:40:39;3.00;99.90
63537;DHT22;49686;51.880;5.632;2022-12-07T14:43:11;3.00;99.90
63537;DHT22;49686;51.880;5.632;2022-12-07T14:45:40;3.00;99.90
63537;DHT22;49686;51.880;5.632;2022-12-07T14:48:07;2.90;99.90
63537;DHT22;49686;51.880;5.632;2022-12-07T14:50:57;2.90;99.90
63537;DHT22;49686;51.880;5.632;2022-12-07T14:53:47;2.80;99.90
63537;DHT22;49686;51.880;5.632;2022-12-07T14:56:23;2.80;99.90
63537;DHT22;49686;51.880;5.632;2022-12-07T14:58:51;2.80;99.90
63537;DHT22;49686;51.880;5.632;2022-12-07T15:01:18;2.70;99.90
63537;DHT22;49686;51.880;5.632;2022-12-07T15:03:44;2.70;99.90
63537;DHT22;49686;51.880;5.632;2022-12-07T15:06:14;2.60;99.90
63537;DHT22;49686;51.880;5.632;2022-12-07T15:08:42;2.60;99.90
63537;DHT22;49686;51.880;5.632;2022-12-07T15:11:11;2.60;99.90
63537;DHT22;49686;51.880;5.632;2022-12-07T15:13:38;2.60;99.90
63537;DHT22;49686;51.880;5.632;2022-12-07T15:16:10;2.60;99.90
63537;DHT22;49686;51.880;5.632;2022-12-07T15:18:37;2.60;99.90
63537;DHT22;49686;51.880;5.632;2022-12-07T15:21:11;2.60;99.90
63537;DHT22;49686;51.880;5.632;2022-12-07T15:23:38;2.50;99.90
63537;DHT22;49686;51.880;5.632;2022-12-07T15:26:05;2.50;99.90
63537;DHT22;49686;51.880;5.632;2022-12-07T15:28:32;2.50;99.90
63537;DHT22;49686;51.880;5.632;2022-12-07T15:30:59;2.50;99.90
63537;DHT22;49686;51.880;5.632;2022-12-07T15:33:47;2.40;99.90
63537;DHT22;49686;51.880;5.632;2022-12-07T15:36:19;2.30;99.90
63537;DHT22;49686;51.880;5.632;2022-12-07T15:38:46;2.30;99.90
63537;DHT22;49686;51.880;5.632;2022-12-07T15:41:32;2.20;99.90
63537;DHT22;49686;51.880;5.632;2022-12-07T15:43:59;2.30;99.90
63537;DHT22;49686;51.880;5.632;2022-12-07T15:46:29;2.30;99.90
63537;DHT22;49686;51.880;5.632;2022-12-07T15:48:57;2.30;99.90
63537;DHT22;49686;51.880;5.632;2022-12-07T15:51:25;2.30;99.90
63537;DHT22;49686;51.880;5.632;2022-12-07T15:53:52;2.20;99.90
63537;DHT22;49686;51.880;5.632;2022-12-07T15:56:19;2.00;99.90
63537;DHT22;49686;51.880;5.632;2022-12-07T15:58:46;1.90;99.90
63537;DHT22;49686;51.880;5.632;2022-12-07T16:01:14;1.80;99.90
63537;DHT22;49686;51.880;5.632;2022-12-07T16:03:42;1.70;99.90
63537;DHT22;49686;51.880;5.632;2022-12-07T16:06:10;1.60;99.90
63537;DHT22;49686;51.880;5.632;2022-12-07T16:08:41;1.60;99.90
63537;DHT22;49686;51.880;5.632;2022-12-07T16:11:08;1.60;99.90
63537;DHT22;49686;51.880;5.632;2022-12-07T16:13:35;1.70;99.90
63537;DHT22;49686;51.880;5.632;2022-12-07T16:16:03;1.60;99.90
63537;DHT22;49686;51.880;5.632;2022-12-07T16:18:30;1.50;99.90